Time;durP1;ratioP1;P1;durP2;ratioP2;P2;SDS_P1;SDS_P2;PMS_P1;PMS_P2;Temp;Humidity;BMP_temperature;BMP_pressure;BME280_temperature;BME280_humidity;BME280_pressure;Samples;Min_cycle;Max_cycle;Signal;HPM_P1;HPM_P2
2022/12/27 00:00:44;;;;;;;2.30;1.03;;;6.40;99.90;5.70;100728.00;;;;4905418;28;107260;-70
2022/12/27 00:03:10;;;;;;;2.30;0.77;;;5.90;99.90;5.70;100737.00;;;;4892242;28;102876;-70
2022/12/27 00:05:35;;;;;;;3.60;1.40;;;6.30;99.90;5.70;100739.00;;;;4903990;28;118670;-70
2022/12/27 00:08:01;;;;;;;1.80;0.53;;;6.40;99.90;5.60;100756.00;;;;4909576;28;111255;-71
2022/12/27 00:10:27;;;;;;;0.57;0.43;;;5.80;99.90;5.60;100762.00;;;;4904720;28;107588;-70
2022/12/27 00:12:53;;;;;;;3.07;0.50;;;5.80;99.90;5.60;100744.00;;;;4904580;28;104185;-71
2022/12/27 00:15:18;;;;;;;0.97;0.50;;;6.00;99.90;5.60;100763.00;;;;4907204;28;88701;-72
2022/12/27 00:17:44;;;;;;;0.40;0.33;;;6.30;99.90;5.50;100768.00;;;;4910272;28;110492;-70
2022/12/27 00:20:10;;;;;;;3.80;0.63;;;5.70;99.90;5.50;100784.00;;;;4908394;28;90247;-71
2022/12/27 00:22:36;;;;;;;0.97;0.50;;;5.70;99.90;5.50;100791.00;;;;4911970;28;100391;-73
2022/12/27 00:25:01;;;;;;;0.40;0.30;;;6.30;99.90;5.40;100785.00;;;;4906097;28;115419;-72
2022/12/27 00:27:27;;;;;;;2.57;1.03;;;6.00;99.90;5.40;100793.00;;;;4910203;28;99218;-71
2022/12/27 00:29:53;;;;;;;0.93;0.50;;;5.60;99.90;5.40;100786.00;;;;4905866;28;103806;-71
2022/12/27 00:32:18;;;;;;;8.30;0.80;;;5.60;99.90;5.30;100787.00;;;;4904759;28;117771;-72
2022/12/27 00:34:44;;;;;;;0.97;0.47;;;5.60;99.90;5.30;100786.00;;;;4904439;28;88632;-73
2022/12/27 00:37:10;;;;;;;1.10;0.73;;;5.50;99.90;5.30;100794.00;;;;4911362;28;111109;-73
2022/12/27 00:39:36;;;;;;;1.70;0.83;;;5.50;99.90;5.30;100786.00;;;;4907524;28;88030;-72
2022/12/27 00:42:02;;;;;;;2.30;0.97;;;5.50;99.90;5.30;100793.00;;;;4908874;28;87404;-72
2022/12/27 00:44:28;;;;;;;0.50;0.50;;;6.20;99.90;5.30;100792.00;;;;4909140;28;87889;-72
2022/12/27 00:46:53;;;;;;;3.67;0.87;;;5.40;99.90;5.20;100803.00;;;;4908029;28;87891;-72
2022/12/27 00:49:19;;;;;;;0.63;0.53;;;5.50;99.90;5.20;100808.00;;;;4908326;28;109134;-72
2022/12/27 00:51:45;;;;;;;1.53;0.50;;;5.40;99.90;5.20;100799.00;;;;4904282;28;116073;-71
2022/12/27 00:54:10;;;;;;;3.13;0.97;;;5.90;99.90;5.20;100800.00;;;;4904118;28;118720;-71
2022/12/27 00:56:36;;;;;;;2.30;0.80;;;5.40;99.90;5.20;100798.00;;;;4906171;28;104269;-73
2022/12/27 00:59:03;;;;;;;0.50;0.50;;;5.90;99.90;5.20;100800.00;;;;4907331;28;108038;-72
2022/12/27 01:01:34;;;;;;;0.80;0.57;;;5.40;99.90;5.20;100800.00;;;;4906570;28;115150;-73
2022/12/27 01:04:01;;;;;;;1.83;0.47;;;5.40;99.90;5.20;100806.00;;;;4905235;28;88242;-72
2022/12/27 01:06:31;;;;;;;0.90;0.73;;;5.40;99.90;5.20;100809.00;;;;4892699;28;87062;-71
2022/12/27 01:08:58;;;;;;;0.60;0.50;;;5.40;99.90;5.20;100829.00;;;;4904779;28;88019;-70
2022/12/27 01:11:25;;;;;;;7.33;0.80;;;5.40;99.90;5.30;100833.00;;;;4894319;28;87907;-71
2022/12/27 01:13:55;;;;;;;0.87;0.67;;;5.50;99.90;5.20;100845.00;;;;4907897;28;90148;-69
2022/12/27 01:16:24;;;;;;;2.93;1.00;;;5.50;99.90;5.30;100857.00;;;;4905030;28;87793;-69
2022/12/27 01:18:49;;;;;;;0.93;0.83;;;5.40;99.90;5.30;100854.00;;;;4906596;28;87968;-72
2022/12/27 01:21:18;;;;;;;0.50;0.50;;;5.40;99.90;5.30;100860.00;;;;4908280;28;88189;-70
2022/12/27 01:23:45;;;;;;;1.13;0.70;;;6.00;99.90;5.30;100867.00;;;;4915595;28;87817;-71
2022/12/27 01:26:15;;;;;;;2.00;0.73;;;5.50;99.90;5.20;100869.00;;;;4908308;28;87817;-69
2022/12/27 01:28:41;;;;;;;0.47;0.47;;;5.40;99.90;5.20;100880.00;;;;4925527;28;87808;-73
2022/12/27 01:31:10;;;;;;;3.77;1.07;;;5.50;99.90;5.20;100871.00;;;;4912734;28;96566;-69
2022/12/27 01:33:36;;;;;;;0.60;0.60;;;5.40;99.90;5.20;100890.00;;;;4907951;28;87932;-72
2022/12/27 01:36:18;;;;;;;2.30;0.83;;;5.40;99.90;5.20;100892.00;;;;4906940;28;87831;-70
2022/12/27 01:38:46;;;;;;;1.40;0.63;;;5.50;99.90;5.20;100901.00;;;;4907362;28;88869;-71
2022/12/27 01:44:38;;;;;;;2.30;0.87;;;6.00;99.90;5.10;100909.00;;;;4904448;28;90329;-70
2022/12/27 01:47:30;;;;;;;7.57;1.27;;;5.40;99.90;5.10;100896.00;;;;4892188;28;88003;-70
2022/12/27 01:50:10;;;;;;;1.10;0.70;;;5.40;99.90;5.10;100914.00;;;;4908081;28;87966;-72
2022/12/27 01:53:01;;;;;;;2.00;0.70;;;5.30;99.90;5.10;100907.00;;;;4883163;28;93959;-69
2022/12/27 01:55:57;;;;;;;3.43;0.63;;;5.40;99.90;5.10;100904.00;;;;4910587;28;88189;-70
2022/12/27 01:58:37;;;;;;;1.33;0.97;;;5.30;99.90;5.10;100910.00;;;;4908517;28;87382;-71
2022/12/27 02:01:05;;;;;;;0.73;0.60;;;5.30;99.90;5.10;100908.00;;;;4911878;28;91555;-72
2022/12/27 02:03:46;;;;;;;0.73;0.50;;;5.30;99.90;5.00;100903.00;;;;4896199;28;96814;-70
2022/12/27 02:06:13;;;;;;;2.93;1.23;;;5.20;99.90;5.00;100906.00;;;;4909331;28;92059;-73
2022/12/27 02:09:21;;;;;;;3.20;0.83;;;6.20;99.90;5.00;100921.00;;;;4893298;28;109088;-73
2022/12/27 02:11:55;;;;;;;1.40;0.83;;;5.20;99.90;5.00;100924.00;;;;4871102;28;90667;-70
2022/12/27 02:14:36;;;;;;;0.57;0.50;;;5.10;99.90;5.00;100926.00;;;;4910642;28;87920;-69
2022/12/27 02:17:07;;;;;;;1.33;0.60;;;5.10;99.90;5.00;100921.00;;;;4880509;28;103676;-70
2022/12/27 02:20:03;;;;;;;1.17;0.60;;;6.30;99.90;4.90;100932.00;;;;4884080;28;87812;-71
2022/12/27 02:26:04;;;;;;;2.93;1.07;;;5.20;99.90;4.90;100942.00;;;;4908531;28;87321;-70
2022/12/27 02:29:08;;;;;;;1.03;0.90;;;5.20;99.90;4.90;100942.00;;;;4877598;28;105220;-71
2022/12/27 02:31:55;;;;;;;1.40;0.80;;;5.10;99.90;4.90;100942.00;;;;4908685;28;88702;-73
2022/12/27 02:34:32;;;;;;;4.37;0.40;;;5.10;99.90;4.90;100945.00;;;;4872251;28;104046;-71
2022/12/27 02:37:08;;;;;;;1.53;0.87;;;5.10;99.90;4.90;100950.00;;;;4892291;28;88489;-73
2022/12/27 02:39:40;;;;;;;0.83;0.83;;;5.10;99.90;4.90;100956.00;;;;4914846;28;87915;-71
2022/12/27 02:54:22;;;;;;;1.83;0.77;;;5.00;99.90;4.70;100964.00;;;;4855695;28;87071;-71
2022/12/27 02:57:08;;;;;;;2.13;1.03;;;5.00;99.90;4.70;100970.00;;;;4840050;28;87899;-70
2022/12/27 03:03:32;;;;;;;1.07;0.97;;;4.80;99.90;4.50;100964.00;;;;4896411;28;88852;-72
2022/12/27 03:06:41;;;;;;;2.00;0.70;;;4.80;99.90;4.40;100973.00;;;;4894115;28;99469;-72
2022/12/27 03:16:04;;;;;;;2.47;1.27;;;4.50;99.90;4.20;100987.00;;;;4908427;28;87834;-71
2022/12/27 03:18:43;;;;;;;3.60;1.47;;;4.50;99.90;4.20;100982.00;;;;4906133;28;98286;-70
2022/12/27 03:26:48;;;;;;;2.40;0.80;;;4.30;99.90;4.00;100989.00;;;;4895637;28;87958;-70
2022/12/27 03:35:09;;;;;;;0.73;0.73;;;4.10;99.90;3.80;101004.00;;;;4894440;28;87820;-70
2022/12/27 03:43:41;;;;;;;3.87;0.90;;;3.90;99.90;3.60;101014.00;;;;4884270;28;87972;-73
2022/12/27 03:46:33;;;;;;;7.70;1.30;;;3.90;99.90;3.60;101018.00;;;;4910403;28;116064;-71
2022/12/27 03:49:23;;;;;;;1.70;0.87;;;3.90;99.90;3.60;101024.00;;;;4909169;28;89351;-72
2022/12/27 03:52:02;;;;;;;1.30;0.40;;;4.40;99.90;3.60;101018.00;;;;4895277;28;99412;-71
2022/12/27 03:54:32;;;;;;;3.07;0.83;;;3.80;99.90;3.60;101021.00;;;;4903509;28;88102;-70
2022/12/27 03:57:02;;;;;;;0.50;0.50;;;3.70;99.90;3.60;101032.00;;;;4885559;28;90497;-70
2022/12/27 03:59:28;;;;;;;2.43;1.00;;;4.40;99.90;3.60;101032.00;;;;4895527;28;111633;-71
2022/12/27 04:01:54;;;;;;;0.90;0.90;;;3.80;99.90;3.50;101033.00;;;;4887009;28;109766;-72
2022/12/27 04:04:20;;;;;;;3.30;1.50;;;3.70;99.90;3.50;101032.00;;;;4905014;28;88017;-69
2022/12/27 04:06:46;;;;;;;3.30;0.73;;;3.80;99.90;3.50;101031.00;;;;4907885;28;117223;-69
2022/12/27 04:36:37;;;;;;;1.87;0.90;;;3.50;99.90;3.20;101061.00;;;;4906921;28;87771;-70
2022/12/27 04:39:02;;;;;;;1.17;0.67;;;3.50;99.90;3.20;101060.00;;;;4890252;28;117046;-69
2022/12/27 04:55:21;;;;;;;0.83;0.83;;;3.40;99.90;3.20;101076.00;;;;4907279;28;87904;-70
2022/12/27 04:57:47;;;;;;;1.57;0.60;;;3.50;99.90;3.30;101077.00;;;;4896020;28;87792;-69
2022/12/27 05:03:06;;;;;;;2.63;1.07;;;3.50;99.90;3.40;101084.00;;;;4909435;28;87742;-69
2022/12/27 05:05:33;;;;;;;3.70;0.73;;;3.60;99.90;3.40;101070.00;;;;4891837;28;89021;-69
2022/12/27 05:16:13;;;;;;;1.67;0.87;;;3.70;99.90;3.50;101072.00;;;;4906733;28;87782;-71
2022/12/27 05:18:39;;;;;;;2.10;1.13;;;3.80;99.90;3.50;101076.00;;;;4904366;28;97331;-72
2022/12/27 05:21:06;;;;;;;3.13;0.90;;;3.80;99.90;3.60;101074.00;;;;4887215;28;116401;-71
2022/12/27 05:26:23;;;;;;;0.60;0.40;;;3.70;99.90;3.50;101078.00;;;;4907136;28;89147;-70
2022/12/27 05:28:52;;;;;;;0.60;0.40;;;3.80;99.90;3.50;101103.00;;;;4905982;28;87976;-70
2022/12/27 05:31:19;;;;;;;0.60;0.43;;;4.30;99.90;3.50;101099.00;;;;4906567;28;87790;-72
2022/12/27 05:33:45;;;;;;;1.23;0.70;;;3.80;99.90;3.50;101107.00;;;;4889406;28;88061;-71
2022/12/27 05:36:10;;;;;;;4.93;1.10;;;3.70;99.90;3.50;101091.00;;;;4911359;28;87076;-72
2022/12/27 05:38:36;;;;;;;7.73;0.70;;;3.80;99.90;3.50;101102.00;;;;4910214;28;94369;-71
2022/12/27 05:41:03;;;;;;;0.50;0.50;;;3.70;99.90;3.50;101104.00;;;;4911682;28;88061;-72
2022/12/27 05:43:29;;;;;;;1.40;0.70;;;3.70;99.90;3.50;101119.00;;;;4907658;28;89085;-69
2022/12/27 05:46:03;;;;;;;1.33;0.80;;;3.70;99.90;3.50;101119.00;;;;4911184;28;99525;-70
2022/12/27 05:48:29;;;;;;;1.13;0.60;;;3.80;99.90;3.50;101106.00;;;;4912109;28;88005;-73
2022/12/27 05:50:55;;;;;;;2.90;0.73;;;3.70;99.90;3.60;101110.00;;;;4916631;28;117289;-69
2022/12/27 05:53:20;;;;;;;3.30;1.03;;;4.40;99.90;3.60;101111.00;;;;4918136;28;118002;-73
2022/12/27 05:55:57;;;;;;;1.80;0.50;;;3.70;99.90;3.60;101117.00;;;;4927694;28;109357;-73
2022/12/27 05:58:24;;;;;;;8.27;0.50;;;3.80;99.90;3.60;101118.00;;;;4888276;28;87913;-72
2022/12/27 06:00:50;;;;;;;3.73;0.70;;;3.70;99.90;3.60;101117.00;;;;4908804;28;87463;-73
2022/12/27 06:03:16;;;;;;;5.40;1.03;;;3.70;99.90;3.60;101127.00;;;;4907020;28;116672;-72
2022/12/27 06:05:42;;;;;;;0.73;0.53;;;3.80;99.90;3.60;101126.00;;;;4909668;28;87992;-71
2022/12/27 06:08:08;;;;;;;0.53;0.47;;;3.80;99.90;3.60;101127.00;;;;4912124;28;109225;-70
2022/12/27 06:10:35;;;;;;;2.63;0.70;;;3.80;99.90;3.60;101134.00;;;;4910127;28;96442;-72
2022/12/27 06:13:02;;;;;;;0.57;0.57;;;4.30;99.90;3.70;101140.00;;;;4895251;28;88140;-70
2022/12/27 06:15:28;;;;;;;0.67;0.67;;;3.80;99.90;3.70;101132.00;;;;4897028;28;87897;-73
2022/12/27 06:17:54;;;;;;;0.80;0.50;;;3.80;99.90;3.60;101143.00;;;;4905136;28;108821;-72
2022/12/27 06:20:20;;;;;;;1.43;1.00;;;3.80;99.90;3.70;101140.00;;;;4879953;28;88387;-71
2022/12/27 06:22:46;;;;;;;0.37;0.30;;;4.20;99.90;3.70;101157.00;;;;4886178;28;103196;-73
2022/12/27 06:25:12;;;;;;;0.97;0.70;;;4.70;99.90;3.60;101150.00;;;;4905340;28;88074;-70
2022/12/27 06:27:38;;;;;;;0.80;0.40;;;3.80;99.90;3.60;101153.00;;;;4908533;28;108264;-70
2022/12/27 06:30:06;;;;;;;0.33;0.20;;;3.80;99.90;3.60;101155.00;;;;4904855;28;119020;-70
2022/12/27 06:32:33;;;;;;;0.70;0.70;;;3.80;99.90;3.60;101161.00;;;;4904750;28;89243;-72
2022/12/27 06:34:59;;;;;;;0.40;0.40;;;3.80;99.90;3.50;101153.00;;;;4902565;28;88313;-70
2022/12/27 06:37:24;;;;;;;0.73;0.53;;;3.70;99.90;3.50;101158.00;;;;4906536;28;108486;-72
2022/12/27 06:39:50;;;;;;;5.47;0.67;;;3.70;99.90;3.50;101164.00;;;;4903837;28;117836;-72
2022/12/27 06:42:16;;;;;;;1.17;0.67;;;3.80;99.90;3.50;101162.00;;;;4904671;28;93032;-73
2022/12/27 06:44:42;;;;;;;1.83;0.73;;;3.70;99.90;3.40;101169.00;;;;4885533;28;110797;-71
2022/12/27 06:47:07;;;;;;;3.07;0.80;;;3.60;99.90;3.30;101168.00;;;;4904599;28;90669;-72
2022/12/27 06:49:33;;;;;;;0.77;0.60;;;4.40;99.90;3.30;101172.00;;;;4907118;28;118569;-69
2022/12/27 06:51:59;;;;;;;0.50;0.27;;;4.00;99.90;3.20;101168.00;;;;4902686;28;115773;-71
2022/12/27 06:54:24;;;;;;;0.30;0.30;;;4.20;99.90;3.20;101173.00;;;;4903018;28;105134;-71
2022/12/27 06:56:50;;;;;;;1.03;0.80;;;4.20;99.90;3.20;101188.00;;;;4903642;28;99338;-71
2022/12/27 06:59:16;;;;;;;0.80;0.80;;;3.40;99.90;3.20;101199.00;;;;4905948;28;115540;-70
2022/12/27 07:01:41;;;;;;;1.43;0.93;;;3.40;99.90;3.10;101198.00;;;;4905112;28;117027;-71
2022/12/27 07:04:09;;;;;;;1.47;1.07;;;3.30;99.90;3.10;101201.00;;;;4888282;28;109054;-70
2022/12/27 07:06:36;;;;;;;1.03;0.87;;;3.30;99.90;3.00;101200.00;;;;4908929;28;87878;-70
2022/12/27 07:09:03;;;;;;;1.07;0.97;;;3.30;99.90;3.00;101203.00;;;;4904394;28;98879;-73
2022/12/27 07:11:32;;;;;;;5.90;1.37;;;3.20;99.90;3.00;101210.00;;;;4906954;28;88996;-72
2022/12/27 07:13:58;;;;;;;1.60;1.10;;;3.30;99.90;2.90;101198.00;;;;4906576;28;87120;-72
2022/12/27 07:16:27;;;;;;;1.70;1.13;;;3.10;99.90;2.90;101222.00;;;;4900316;28;107400;-72
2022/12/27 07:18:57;;;;;;;1.93;0.67;;;3.10;99.90;2.80;101216.00;;;;4886962;28;88407;-71
2022/12/27 07:21:27;;;;;;;3.20;1.00;;;3.20;99.90;2.80;101226.00;;;;4902213;28;88936;-71
2022/12/27 07:23:53;;;;;;;0.77;0.77;;;3.00;99.90;2.80;101224.00;;;;4905106;28;88468;-71
2022/12/27 07:26:26;;;;;;;0.87;0.70;;;3.00;99.90;2.80;101218.00;;;;4890542;28;87801;-70
2022/12/27 07:28:54;;;;;;;0.83;0.77;;;3.00;99.90;2.70;101222.00;;;;4905169;28;89155;-71
2022/12/27 07:31:23;;;;;;;0.60;0.60;;;3.00;99.90;2.80;101232.00;;;;4895242;28;88619;-71
2022/12/27 07:33:49;;;;;;;1.00;0.50;;;3.00;99.90;2.90;101226.00;;;;4039079;28;10000623;-72
2022/12/27 07:36:23;;;;;;;1.07;0.80;;;3.10;99.90;3.00;101234.00;;;;4901904;28;88327;-72
2022/12/27 07:38:48;;;;;;;1.23;0.50;;;3.20;99.90;3.10;101229.00;;;;4902475;28;87385;-71
2022/12/27 07:41:14;;;;;;;3.80;1.00;;;3.20;99.90;3.20;101233.00;;;;4901795;28;108468;-71
2022/12/27 07:43:40;;;;;;;1.13;1.03;;;3.30;99.90;3.30;101246.00;;;;4900962;28;117863;-71
2022/12/27 07:46:19;;;;;;;1.23;0.83;;;3.50;99.90;3.40;101244.00;;;;4905113;28;88793;-71
2022/12/27 07:48:46;;;;;;;2.47;1.37;;;3.60;99.90;3.50;101235.00;;;;4904872;28;87866;-71
2022/12/27 07:51:13;;;;;;;4.00;1.03;;;3.60;99.90;3.50;101245.00;;;;4904278;28;87956;-71
2022/12/27 07:53:39;;;;;;;0.57;0.57;;;3.60;99.90;3.60;101251.00;;;;4885761;28;88193;-72
2022/12/27 07:56:12;;;;;;;4.27;0.70;;;3.70;99.90;3.80;101245.00;;;;4905353;28;88634;-74
2022/12/27 07:58:44;;;;;;;1.27;0.80;;;4.20;99.90;4.00;101255.00;;;;4903333;28;92579;-70
2022/12/27 08:01:12;;;;;;;0.73;0.73;;;4.10;99.90;4.10;101255.00;;;;4905103;28;87823;-71
2022/12/27 08:03:39;;;;;;;2.57;0.80;;;4.20;99.90;4.30;101261.00;;;;4903085;28;87139;-72
2022/12/27 08:06:06;;;;;;;0.87;0.67;;;4.40;99.90;4.30;101265.00;;;;4902705;28;108446;-70
2022/12/27 08:08:38;;;;;;;2.03;0.90;;;4.60;99.90;4.20;101268.00;;;;4878704;28;88046;-71
2022/12/27 08:11:04;;;;;;;3.43;0.90;;;4.40;99.90;4.10;101253.00;;;;4902028;28;88933;-70
2022/12/27 08:13:30;;;;;;;1.57;0.80;;;4.40;99.90;4.10;101276.00;;;;4905047;28;88820;-68
2022/12/27 08:15:56;;;;;;;0.87;0.67;;;4.30;99.90;4.10;101267.00;;;;4902601;28;117448;-71
2022/12/27 08:18:21;;;;;;;2.67;1.07;;;4.30;99.90;4.10;101275.00;;;;4903144;28;111949;-70
2022/12/27 08:20:47;;;;;;;0.80;0.57;;;4.30;99.90;4.10;101255.00;;;;4903573;28;88158;-73
2022/12/27 08:23:13;;;;;;;0.53;0.50;;;4.30;99.90;4.00;101267.00;;;;4886735;28;88222;-71
2022/12/27 08:25:38;;;;;;;1.90;1.00;;;4.30;99.90;4.00;101262.00;;;;4904104;28;117028;-71
2022/12/27 08:28:11;;;;;;;1.03;0.93;;;4.20;99.90;3.90;101266.00;;;;4886564;28;109655;-72
2022/12/27 08:30:39;;;;;;;1.60;0.77;;;4.10;99.90;3.90;101268.00;;;;4904352;28;87943;-71
2022/12/27 08:33:05;;;;;;;0.97;0.97;;;4.10;99.90;3.90;101267.00;;;;4027645;28;10000572;-70
2022/12/27 08:35:31;;;;;;;1.43;0.77;;;4.10;99.90;3.80;101259.00;;;;4906850;28;88777;-71
2022/12/27 08:38:00;;;;;;;1.60;0.50;;;4.00;99.90;3.80;101262.00;;;;4902270;28;87658;-72
2022/12/27 08:40:26;;;;;;;2.93;1.30;;;4.50;99.90;3.80;101263.00;;;;4903130;28;89130;-70
2022/12/27 08:42:51;;;;;;;0.67;0.43;;;4.00;99.90;3.80;101265.00;;;;4904422;28;109783;-71
2022/12/27 08:45:17;;;;;;;2.80;0.50;;;4.10;99.90;3.90;101258.00;;;;4893158;28;110715;-73
2022/12/27 08:47:43;;;;;;;0.93;0.60;;;4.10;99.90;4.00;101256.00;;;;4899912;28;116000;-71
2022/12/27 08:50:09;;;;;;;0.87;0.73;;;4.20;99.90;4.10;101258.00;;;;4904286;28;116704;-71
2022/12/27 08:52:34;;;;;;;3.40;1.47;;;4.20;99.90;4.20;101254.00;;;;4907948;28;87328;-70
2022/12/27 08:55:01;;;;;;;0.83;0.77;;;4.40;99.90;4.30;101251.00;;;;4903363;28;87965;-69
2022/12/27 08:57:27;;;;;;;1.17;0.60;;;4.40;99.90;4.40;101274.00;;;;4904673;28;105629;-70
2022/12/27 08:59:53;;;;;;;4.10;0.87;;;4.50;99.90;4.70;101269.00;;;;4903394;28;114579;-70
2022/12/27 09:02:18;;;;;;;0.40;0.40;;;4.80;99.90;4.80;101260.00;;;;4901662;28;110492;-71
2022/12/27 09:04:44;;;;;;;0.97;0.87;;;4.90;99.90;5.00;101267.00;;;;4902264;28;109566;-70
2022/12/27 09:07:10;;;;;;;1.13;0.73;;;5.30;99.90;5.20;101275.00;;;;4878276;28;116784;-73
2022/12/27 09:09:36;;;;;;;1.37;0.90;;;5.30;99.90;5.40;101288.00;;;;4899464;28;117617;-71
2022/12/27 09:12:01;;;;;;;0.30;0.23;;;6.30;99.90;5.50;101271.00;;;;4901422;28;88124;-70
2022/12/27 09:14:27;;;;;;;2.83;0.70;;;5.60;99.90;5.50;101267.00;;;;4901980;28;87830;-69
2022/12/27 09:16:53;;;;;;;5.43;0.87;;;5.70;99.90;5.50;101264.00;;;;4903792;28;115284;-71
2022/12/27 09:19:18;;;;;;;1.23;0.60;;;5.60;99.90;5.40;101275.00;;;;4903732;28;88315;-69
2022/12/27 09:21:44;;;;;;;2.87;0.57;;;5.70;99.90;5.40;101258.00;;;;4902530;28;110539;-70
2022/12/27 09:24:11;;;;;;;1.57;0.73;;;5.70;99.90;5.40;101258.00;;;;4881859;28;90125;-70
2022/12/27 09:26:37;;;;;;;1.00;0.90;;;5.60;99.90;5.30;101266.00;;;;4902423;28;90071;-72
2022/12/27 09:29:03;;;;;;;0.97;0.73;;;6.90;99.90;5.30;101264.00;;;;4901150;28;89074;-70
2022/12/27 09:31:30;;;;;;;2.03;0.70;;;5.50;99.90;5.30;101275.00;;;;4904652;28;87802;-72
2022/12/27 09:33:57;;;;;;;0.93;0.63;;;5.50;99.90;5.30;101268.00;;;;4900142;28;89219;-70
2022/12/27 09:36:26;;;;;;;2.87;1.17;;;5.50;99.90;5.30;101261.00;;;;4902629;28;88319;-69
2022/12/27 09:38:53;;;;;;;3.23;0.80;;;6.20;99.90;5.40;101279.00;;;;4896622;28;89048;-70
2022/12/27 09:41:44;;;;;;;0.80;0.63;;;5.90;99.90;5.30;101260.00;;;;4897973;28;102004;-70
2022/12/27 09:44:29;;;;;;;2.23;1.00;;;5.50;99.90;5.30;101262.00;;;;4898089;28;88303;-72
2022/12/27 09:47:43;;;;;;;1.80;0.77;;;5.50;99.90;5.30;101266.00;;;;4903850;28;87933;-70
2022/12/27 09:50:15;;;;;;;2.20;1.07;;;5.50;99.90;5.40;101274.00;;;;4885975;28;89049;-72
2022/12/27 09:53:11;;;;;;;1.70;0.63;;;5.60;99.90;5.40;101284.00;;;;4886721;28;101276;-70
2022/12/27 09:55:45;;;;;;;1.17;0.70;;;5.60;99.90;5.40;101271.00;;;;4885393;28;96178;-71
2022/12/27 09:58:51;;;;;;;0.93;0.60;;;6.30;99.90;5.30;101271.00;;;;4865724;28;90999;-70
2022/12/27 10:01:29;;;;;;;1.57;0.60;;;5.60;99.90;5.30;101285.00;;;;4905692;28;88668;-72
2022/12/27 10:03:55;;;;;;;2.97;0.57;;;6.10;99.90;5.30;101273.00;;;;4895801;28;87769;-70
2022/12/27 10:06:48;;;;;;;1.37;0.50;;;5.80;99.90;5.30;101275.00;;;;4904828;28;109459;-70
2022/12/27 10:09:41;;;;;;;0.90;0.50;;;5.60;99.90;5.30;101286.00;;;;4910626;28;96588;-70
2022/12/27 10:12:55;;;;;;;2.47;1.13;;;5.50;99.90;5.30;101283.00;;;;4902058;28;89351;-68
2022/12/27 10:15:45;;;;;;;2.03;0.67;;;5.60;99.90;5.40;101292.00;;;;4862242;28;87969;-68
2022/12/27 10:18:20;;;;;;;2.83;0.93;;;5.60;99.90;5.40;101289.00;;;;4901836;28;88814;-68
2022/12/27 10:21:11;;;;;;;1.50;0.90;;;5.60;99.90;5.40;101279.00;;;;4890074;28;103553;-69
2022/12/27 10:23:44;;;;;;;2.00;0.80;;;5.60;99.90;5.40;101286.00;;;;4882981;28;103682;-71
2022/12/27 10:26:17;;;;;;;1.63;0.90;;;5.60;99.90;5.40;101294.00;;;;4882093;28;87789;-69
2022/12/27 10:28:55;;;;;;;0.73;0.73;;;6.40;99.90;5.50;101292.00;;;;4875485;28;87938;-68
2022/12/27 10:31:22;;;;;;;0.50;0.40;;;5.60;99.90;5.50;101290.00;;;;4887036;28;89245;-68
2022/12/27 10:33:49;;;;;;;4.37;0.77;;;5.60;99.90;5.60;101283.00;;;;4907557;28;99068;-71
2022/12/27 10:36:36;;;;;;;2.80;0.83;;;5.70;99.90;5.70;101289.00;;;;4885259;28;87440;-69
2022/12/27 10:39:09;;;;;;;0.60;0.60;;;5.80;99.90;5.90;101291.00;;;;4887261;28;108285;-68
2022/12/27 10:41:53;;;;;;;1.37;0.67;;;6.70;99.90;6.10;101283.00;;;;4884824;28;96944;-70
2022/12/27 10:44:18;;;;;;;1.50;0.87;;;6.20;99.90;6.10;101289.00;;;;4905008;28;88820;-69
2022/12/27 10:46:51;;;;;;;3.83;1.57;;;6.30;99.90;6.20;101289.00;;;;4906360;28;109948;-69
2022/12/27 10:49:30;;;;;;;1.13;0.83;;;6.30;99.90;6.20;101287.00;;;;4907340;28;87921;-70
2022/12/27 10:52:21;;;;;;;1.30;0.70;;;6.40;99.90;6.30;101284.00;;;;4886403;28;88050;-72
2022/12/27 10:54:53;;;;;;;1.80;1.00;;;6.50;99.90;6.40;101292.00;;;;4897624;28;117561;-69
2022/12/27 10:57:31;;;;;;;0.40;0.40;;;6.40;99.90;6.30;101291.00;;;;4905688;28;89407;-69
2022/12/27 11:00:16;;;;;;;1.47;0.60;;;6.50;99.90;6.30;101286.00;;;;4907074;28;88015;-69
2022/12/27 11:02:59;;;;;;;6.70;1.20;;;6.50;99.90;6.40;101278.00;;;;4906625;28;88009;-73
2022/12/27 11:05:28;;;;;;;2.07;0.87;;;6.60;99.90;6.40;101277.00;;;;4907641;28;87971;-72
2022/12/27 11:07:54;;;;;;;1.23;1.03;;;6.50;99.90;6.40;101282.00;;;;4907003;28;87962;-69
2022/12/27 11:10:24;;;;;;;1.60;1.43;;;6.50;99.90;6.40;101303.00;;;;4888375;28;89235;-71
2022/12/27 11:12:58;;;;;;;0.97;0.60;;;6.60;99.90;6.40;101299.00;;;;4880974;28;87988;-70
2022/12/27 11:15:26;;;;;;;1.70;0.97;;;6.60;99.90;6.40;101300.00;;;;4909856;28;88577;-71
2022/12/27 11:17:57;;;;;;;1.27;0.60;;;6.60;99.90;6.50;101299.00;;;;4881535;28;89198;-69
2022/12/27 11:20:28;;;;;;;0.93;0.83;;;6.60;99.90;6.50;101296.00;;;;4880972;28;88095;-68
2022/12/27 11:23:04;;;;;;;1.33;0.70;;;6.60;99.90;6.60;101310.00;;;;4905491;28;88777;-69
2022/12/27 11:25:31;;;;;;;0.87;0.83;;;6.80;99.90;6.70;101307.00;;;;4887130;28;92334;-69
2022/12/27 11:28:00;;;;;;;1.70;1.03;;;7.20;99.90;6.80;101315.00;;;;4891480;28;87329;-71
2022/12/27 11:30:32;;;;;;;1.07;0.60;;;6.90;99.90;6.80;101307.00;;;;4905583;28;88040;-69
2022/12/27 11:33:18;;;;;;;2.77;0.67;;;6.90;99.90;6.80;101319.00;;;;4888271;28;87908;-70
2022/12/27 11:35:49;;;;;;;1.53;0.70;;;7.00;99.90;6.80;101299.00;;;;4879301;28;104702;-69
2022/12/27 11:38:37;;;;;;;0.30;0.30;;;6.90;99.90;6.80;101289.00;;;;4906443;28;100223;-71
2022/12/27 11:41:12;;;;;;;0.40;0.40;;;7.00;99.90;6.80;101302.00;;;;4877349;28;88932;-69
2022/12/27 11:44:08;;;;;;;1.60;0.80;;;7.00;99.90;6.80;101295.00;;;;4886598;28;104343;-69
2022/12/27 11:46:40;;;;;;;1.07;0.40;;;7.00;99.90;6.90;101309.00;;;;4887133;28;101870;-71
2022/12/27 11:49:16;;;;;;;1.20;0.50;;;7.00;99.90;6.90;101304.00;;;;4876448;28;88083;-70
2022/12/27 11:52:16;;;;;;;1.67;0.83;;;7.00;99.90;6.90;101297.00;;;;4863949;28;88773;-70
2022/12/27 11:55:20;;;;;;;1.37;0.60;;;7.00;99.90;6.80;101296.00;;;;4886031;28;88054;-69
2022/12/27 11:58:42;;;;;;;1.03;0.60;;;7.00;99.90;6.80;101299.00;;;;4883036;28;89111;-71
2022/12/27 12:01:32;;;;;;;0.83;0.40;;;7.00;99.90;6.80;101297.00;;;;4883681;28;87696;-70
2022/12/27 12:04:40;;;;;;;3.00;0.60;;;7.00;99.90;6.80;101305.00;;;;4886214;28;89018;-69
2022/12/27 12:07:55;;;;;;;1.80;0.70;;;7.00;99.90;6.80;101304.00;;;;4885126;28;105676;-72
2022/12/27 12:10:35;;;;;;;1.77;0.80;;;7.00;99.90;6.90;101297.00;;;;4888100;28;87875;-69
2022/12/27 12:13:27;;;;;;;0.97;0.77;;;7.00;99.90;6.90;101288.00;;;;4885609;28;87887;-69
2022/12/27 12:16:39;;;;;;;0.73;0.50;;;7.00;99.90;6.80;101293.00;;;;4885843;28;89349;-73
2022/12/27 12:19:57;;;;;;;5.37;0.80;;;7.00;99.90;6.80;101295.00;;;;4887499;28;89600;-69
2022/12/27 12:22:53;;;;;;;0.83;0.80;;;7.00;99.90;6.90;101288.00;;;;4895413;28;109241;-70
2022/12/27 12:25:58;;;;;;;3.20;0.70;;;7.00;99.90;6.90;101291.00;;;;4885059;28;87080;-69
2022/12/27 12:29:02;;;;;;;0.30;0.30;;;7.00;99.90;7.00;101294.00;;;;4884136;28;97739;-70
2022/12/27 12:31:54;;;;;;;0.83;0.83;;;7.10;99.90;7.10;101300.00;;;;4884505;28;88239;-71
2022/12/27 12:35:07;;;;;;;1.07;0.60;;;7.20;99.90;7.00;101306.00;;;;4881601;28;90695;-71
2022/12/27 12:38:11;;;;;;;0.83;0.60;;;7.20;99.90;7.00;101294.00;;;;4886328;28;88147;-71
2022/12/27 12:40:57;;;;;;;0.93;0.70;;;7.20;99.90;7.00;101311.00;;;;4885102;28;88007;-68
2022/12/27 12:44:00;;;;;;;3.23;1.03;;;7.10;99.90;7.00;101312.00;;;;4891754;28;88899;-71
2022/12/27 12:46:53;;;;;;;1.80;0.77;;;7.20;99.90;7.00;101328.00;;;;4908308;28;90763;-68
2022/12/27 12:49:55;;;;;;;1.00;0.67;;;7.20;99.90;7.00;101328.00;;;;4887297;28;88183;-69
2022/12/27 12:52:46;;;;;;;1.33;0.63;;;7.20;99.90;7.00;101332.00;;;;4902348;28;88194;-71
2022/12/27 12:55:36;;;;;;;5.90;0.80;;;7.20;99.90;7.00;101329.00;;;;4907829;28;105802;-68
2022/12/27 12:58:01;;;;;;;0.33;0.33;;;7.20;99.90;7.00;101325.00;;;;4904031;28;97283;-69
2022/12/27 13:00:55;;;;;;;1.60;0.40;;;7.20;99.90;7.00;101333.00;;;;4903620;28;106706;-72
2022/12/27 13:03:38;;;;;;;0.60;0.60;;;7.20;99.90;6.90;101318.00;;;;4900935;28;89017;-70
2022/12/27 13:06:38;;;;;;;0.50;0.50;;;7.10;99.90;6.90;101318.00;;;;4901841;28;87918;-68
2022/12/27 13:09:19;;;;;;;0.43;0.43;;;7.10;99.90;6.90;101323.00;;;;4905115;28;89389;-73
2022/12/27 13:12:23;;;;;;;0.60;0.50;;;7.10;99.90;6.80;101331.00;;;;4904810;28;87836;-72